Terminal Aerodrome Forecast
Issued by NWS

Home | Current Version | Previous Version | Text Only | Print | Product List | Glossary On
Versions: 1 2 3 4 5 6 7 8 9 10 11 12 13 14 15 16 17 18 19 20 21
000
FTUS41 KPBZ 280800 AAB
TAFLBE
TAF AMD
KLBE 280844Z 2809/2906 24009KT P6SM SCT015 BKN040
      TEMPO 2809/2811 BKN015
     FM281500 31013G15KT P6SM VCSH BKN025
     FM282100 31013G18KT P6SM VCSH BKN035
     FM290400 30005KT P6SM SCT035=

USA.gov is the U.S. government's official web portal to all federal, state and local government web resources and services.